sensor_id;sensor_type;location;lat;lon;timestamp;P1;durP1;ratioP1;P2;durP2;ratioP2
75429;SDS011;64127;51.488;5.462;2023-03-02T00:00:23;6.27;;;5.00;;
75429;SDS011;64127;51.488;5.462;2023-03-02T00:02:55;6.90;;;4.90;;
75429;SDS011;64127;51.488;5.462;2023-03-02T00:05:28;5.60;;;5.10;;
75429;SDS011;64127;51.488;5.462;2023-03-02T00:08:01;6.17;;;5.13;;
75429;SDS011;64127;51.488;5.462;2023-03-02T00:10:35;5.10;;;4.60;;
75429;SDS011;64127;51.488;5.462;2023-03-02T00:13:08;5.73;;;5.13;;
75429;SDS011;64127;51.488;5.462;2023-03-02T00:15:43;6.30;;;4.97;;
75429;SDS011;64127;51.488;5.462;2023-03-02T00:18:15;5.83;;;5.00;;
75429;SDS011;64127;51.488;5.462;2023-03-02T00:20:47;6.17;;;5.07;;
75429;SDS011;64127;51.488;5.462;2023-03-02T00:23:19;8.63;;;4.87;;
75429;SDS011;64127;51.488;5.462;2023-03-02T00:25:51;5.47;;;4.90;;
75429;SDS011;64127;51.488;5.462;2023-03-02T00:28:23;6.10;;;4.87;;
75429;SDS011;64127;51.488;5.462;2023-03-02T00:30:55;7.80;;;4.90;;
75429;SDS011;64127;51.488;5.462;2023-03-02T00:33:27;7.73;;;5.33;;
75429;SDS011;64127;51.488;5.462;2023-03-02T00:35:59;6.07;;;5.27;;
75429;SDS011;64127;51.488;5.462;2023-03-02T00:38:32;5.60;;;5.10;;
75429;SDS011;64127;51.488;5.462;2023-03-02T00:41:04;6.07;;;5.17;;
75429;SDS011;64127;51.488;5.462;2023-03-02T00:43:36;5.47;;;4.87;;
75429;SDS011;64127;51.488;5.462;2023-03-02T00:46:13;6.87;;;5.07;;
75429;SDS011;64127;51.488;5.462;2023-03-02T00:48:49;7.80;;;5.27;;
75429;SDS011;64127;51.488;5.462;2023-03-02T00:51:22;10.00;;;4.67;;
75429;SDS011;64127;51.488;5.462;2023-03-02T00:53:55;5.40;;;4.90;;
75429;SDS011;64127;51.488;5.462;2023-03-02T00:56:27;6.33;;;5.17;;
75429;SDS011;64127;51.488;5.462;2023-03-02T00:59:04;6.83;;;5.30;;
75429;SDS011;64127;51.488;5.462;2023-03-02T01:01:58;5.50;;;4.70;;
75429;SDS011;64127;51.488;5.462;2023-03-02T01:04:49;7.67;;;5.00;;
75429;SDS011;64127;51.488;5.462;2023-03-02T01:07:23;6.03;;;5.03;;
75429;SDS011;64127;51.488;5.462;2023-03-02T01:09:56;7.20;;;5.00;;
75429;SDS011;64127;51.488;5.462;2023-03-02T01:12:28;5.70;;;4.90;;
75429;SDS011;64127;51.488;5.462;2023-03-02T01:15:01;5.77;;;5.10;;
75429;SDS011;64127;51.488;5.462;2023-03-02T01:17:35;7.67;;;5.30;;
75429;SDS011;64127;51.488;5.462;2023-03-02T01:20:07;6.07;;;4.90;;
75429;SDS011;64127;51.488;5.462;2023-03-02T01:22:41;6.93;;;5.03;;
75429;SDS011;64127;51.488;5.462;2023-03-02T01:25:14;7.23;;;5.03;;
75429;SDS011;64127;51.488;5.462;2023-03-02T01:27:46;6.30;;;5.57;;
75429;SDS011;64127;51.488;5.462;2023-03-02T01:30:19;5.77;;;5.17;;
75429;SDS011;64127;51.488;5.462;2023-03-02T01:32:51;5.90;;;5.27;;
75429;SDS011;64127;51.488;5.462;2023-03-02T01:35:23;7.03;;;5.10;;
75429;SDS011;64127;51.488;5.462;2023-03-02T01:37:55;5.80;;;4.80;;
75429;SDS011;64127;51.488;5.462;2023-03-02T01:40:27;7.47;;;5.50;;
75429;SDS011;64127;51.488;5.462;2023-03-02T01:42:59;5.90;;;5.30;;
75429;SDS011;64127;51.488;5.462;2023-03-02T01:45:45;5.77;;;5.13;;
75429;SDS011;64127;51.488;5.462;2023-03-02T01:48:32;5.67;;;5.07;;
75429;SDS011;64127;51.488;5.462;2023-03-02T01:51:29;6.80;;;5.00;;
75429;SDS011;64127;51.488;5.462;2023-03-02T01:54:09;8.33;;;5.27;;
75429;SDS011;64127;51.488;5.462;2023-03-02T01:56:57;6.23;;;5.20;;
75429;SDS011;64127;51.488;5.462;2023-03-02T01:59:33;5.90;;;5.30;;
75429;SDS011;64127;51.488;5.462;2023-03-02T02:02:09;6.10;;;5.13;;
75429;SDS011;64127;51.488;5.462;2023-03-02T02:04:43;8.50;;;5.60;;
75429;SDS011;64127;51.488;5.462;2023-03-02T02:07:19;6.33;;;5.30;;
75429;SDS011;64127;51.488;5.462;2023-03-02T02:09:51;5.63;;;4.37;;
75429;SDS011;64127;51.488;5.462;2023-03-02T02:12:24;5.93;;;5.00;;
75429;SDS011;64127;51.488;5.462;2023-03-02T02:14:56;6.20;;;5.30;;
75429;SDS011;64127;51.488;5.462;2023-03-02T02:17:31;6.93;;;5.30;;
75429;SDS011;64127;51.488;5.462;2023-03-02T02:22:57;8.73;;;5.60;;
75429;SDS011;64127;51.488;5.462;2023-03-02T02:28:33;6.53;;;5.33;;
75429;SDS011;64127;51.488;5.462;2023-03-02T02:31:20;6.93;;;5.37;;
75429;SDS011;64127;51.488;5.462;2023-03-02T02:34:21;10.00;;;5.90;;
75429;SDS011;64127;51.488;5.462;2023-03-02T02:37:48;6.50;;;5.40;;
75429;SDS011;64127;51.488;5.462;2023-03-02T02:40:13;5.97;;;5.37;;
75429;SDS011;64127;51.488;5.462;2023-03-02T02:42:50;7.57;;;6.07;;
75429;SDS011;64127;51.488;5.462;2023-03-02T02:45:24;7.33;;;6.20;;
75429;SDS011;64127;51.488;5.462;2023-03-02T02:47:57;7.30;;;6.07;;
75429;SDS011;64127;51.488;5.462;2023-03-02T02:50:31;7.17;;;6.47;;
75429;SDS011;64127;51.488;5.462;2023-03-02T02:53:08;8.93;;;6.90;;
75429;SDS011;64127;51.488;5.462;2023-03-02T02:55:47;7.77;;;6.80;;
75429;SDS011;64127;51.488;5.462;2023-03-02T03:00:55;9.53;;;8.03;;
75429;SDS011;64127;51.488;5.462;2023-03-02T03:06:10;9.23;;;8.20;;
75429;SDS011;64127;51.488;5.462;2023-03-02T03:08:49;9.63;;;7.93;;
75429;SDS011;64127;51.488;5.462;2023-03-02T03:11:27;9.83;;;8.43;;
75429;SDS011;64127;51.488;5.462;2023-03-02T03:14:04;13.60;;;9.20;;
75429;SDS011;64127;51.488;5.462;2023-03-02T03:16:39;12.00;;;10.10;;
75429;SDS011;64127;51.488;5.462;2023-03-02T03:19:30;11.50;;;9.50;;
75429;SDS011;64127;51.488;5.462;2023-03-02T03:22:03;12.03;;;9.57;;
75429;SDS011;64127;51.488;5.462;2023-03-02T03:24:35;11.00;;;9.23;;
75429;SDS011;64127;51.488;5.462;2023-03-02T03:27:09;12.53;;;10.10;;
75429;SDS011;64127;51.488;5.462;2023-03-02T03:29:46;12.97;;;10.47;;
75429;SDS011;64127;51.488;5.462;2023-03-02T03:32:18;14.63;;;11.60;;
75429;SDS011;64127;51.488;5.462;2023-03-02T03:34:51;16.47;;;11.47;;
75429;SDS011;64127;51.488;5.462;2023-03-02T03:37:23;16.20;;;11.80;;
75429;SDS011;64127;51.488;5.462;2023-03-02T03:39:55;15.20;;;12.60;;
75429;SDS011;64127;51.488;5.462;2023-03-02T03:42:27;16.00;;;12.53;;
75429;SDS011;64127;51.488;5.462;2023-03-02T03:44:59;13.23;;;11.60;;
75429;SDS011;64127;51.488;5.462;2023-03-02T03:47:31;15.07;;;12.47;;
75429;SDS011;64127;51.488;5.462;2023-03-02T03:50:03;18.80;;;13.50;;
75429;SDS011;64127;51.488;5.462;2023-03-02T03:52:36;17.93;;;13.67;;
75429;SDS011;64127;51.488;5.462;2023-03-02T03:55:08;17.13;;;13.33;;
75429;SDS011;64127;51.488;5.462;2023-03-02T03:57:40;16.10;;;13.27;;
75429;SDS011;64127;51.488;5.462;2023-03-02T04:00:14;18.33;;;13.90;;
75429;SDS011;64127;51.488;5.462;2023-03-02T04:02:50;17.70;;;13.97;;
75429;SDS011;64127;51.488;5.462;2023-03-02T04:05:22;16.63;;;14.37;;
75429;SDS011;64127;51.488;5.462;2023-03-02T04:07:54;17.57;;;14.47;;
75429;SDS011;64127;51.488;5.462;2023-03-02T04:10:26;16.83;;;13.90;;
75429;SDS011;64127;51.488;5.462;2023-03-02T04:13:00;18.53;;;14.43;;
75429;SDS011;64127;51.488;5.462;2023-03-02T04:15:32;17.93;;;14.57;;
75429;SDS011;64127;51.488;5.462;2023-03-02T04:18:04;18.60;;;14.80;;
75429;SDS011;64127;51.488;5.462;2023-03-02T04:20:36;19.60;;;15.10;;
75429;SDS011;64127;51.488;5.462;2023-03-02T04:23:08;18.80;;;14.80;;
75429;SDS011;64127;51.488;5.462;2023-03-02T04:25:40;19.30;;;15.13;;
75429;SDS011;64127;51.488;5.462;2023-03-02T04:28:13;17.70;;;14.53;;
75429;SDS011;64127;51.488;5.462;2023-03-02T04:30:47;18.60;;;15.33;;
75429;SDS011;64127;51.488;5.462;2023-03-02T04:33:21;19.10;;;14.83;;
75429;SDS011;64127;51.488;5.462;2023-03-02T04:35:53;19.83;;;15.67;;
75429;SDS011;64127;51.488;5.462;2023-03-02T04:38:25;19.83;;;16.07;;
75429;SDS011;64127;51.488;5.462;2023-03-02T04:40:59;20.03;;;15.07;;
75429;SDS011;64127;51.488;5.462;2023-03-02T04:43:31;21.60;;;16.67;;
75429;SDS011;64127;51.488;5.462;2023-03-02T04:46:03;20.50;;;15.87;;
75429;SDS011;64127;51.488;5.462;2023-03-02T04:48:36;18.57;;;15.37;;
75429;SDS011;64127;51.488;5.462;2023-03-02T04:51:15;19.93;;;13.60;;
75429;SDS011;64127;51.488;5.462;2023-03-02T04:53:55;19.67;;;15.07;;
75429;SDS011;64127;51.488;5.462;2023-03-02T04:56:31;18.57;;;14.90;;
75429;SDS011;64127;51.488;5.462;2023-03-02T04:59:04;21.57;;;14.93;;
75429;SDS011;64127;51.488;5.462;2023-03-02T05:01:37;18.93;;;15.10;;
75429;SDS011;64127;51.488;5.462;2023-03-02T05:04:09;19.63;;;14.43;;
75429;SDS011;64127;51.488;5.462;2023-03-02T05:06:42;20.43;;;14.53;;
75429;SDS011;64127;51.488;5.462;2023-03-02T05:09:14;18.63;;;14.37;;
75429;SDS011;64127;51.488;5.462;2023-03-02T05:11:46;17.27;;;14.13;;
75429;SDS011;64127;51.488;5.462;2023-03-02T05:14:18;19.90;;;14.63;;
75429;SDS011;64127;51.488;5.462;2023-03-02T05:16:50;19.90;;;15.53;;
75429;SDS011;64127;51.488;5.462;2023-03-02T05:19:23;19.63;;;14.73;;
75429;SDS011;64127;51.488;5.462;2023-03-02T05:21:56;19.80;;;16.17;;
75429;SDS011;64127;51.488;5.462;2023-03-02T05:24:28;21.50;;;16.77;;
75429;SDS011;64127;51.488;5.462;2023-03-02T05:27:00;22.17;;;16.30;;
75429;SDS011;64127;51.488;5.462;2023-03-02T05:29:32;22.13;;;16.83;;
75429;SDS011;64127;51.488;5.462;2023-03-02T05:32:04;21.60;;;16.27;;
75429;SDS011;64127;51.488;5.462;2023-03-02T05:34:36;22.03;;;16.80;;
75429;SDS011;64127;51.488;5.462;2023-03-02T05:37:08;23.70;;;17.37;;
75429;SDS011;64127;51.488;5.462;2023-03-02T05:39:40;22.67;;;16.23;;
75429;SDS011;64127;51.488;5.462;2023-03-02T05:42:12;23.77;;;17.80;;
75429;SDS011;64127;51.488;5.462;2023-03-02T05:44:44;23.07;;;17.27;;
75429;SDS011;64127;51.488;5.462;2023-03-02T05:47:16;22.87;;;17.20;;
75429;SDS011;64127;51.488;5.462;2023-03-02T05:49:48;26.60;;;17.17;;
75429;SDS011;64127;51.488;5.462;2023-03-02T05:52:20;26.90;;;18.13;;
75429;SDS011;64127;51.488;5.462;2023-03-02T05:54:52;24.13;;;18.30;;
75429;SDS011;64127;51.488;5.462;2023-03-02T05:57:24;26.67;;;17.73;;
75429;SDS011;64127;51.488;5.462;2023-03-02T05:59:55;25.00;;;18.30;;
75429;SDS011;64127;51.488;5.462;2023-03-02T06:02:27;25.70;;;18.07;;
75429;SDS011;64127;51.488;5.462;2023-03-02T06:05:00;25.23;;;18.83;;
75429;SDS011;64127;51.488;5.462;2023-03-02T06:07:31;26.10;;;19.30;;
75429;SDS011;64127;51.488;5.462;2023-03-02T06:10:04;25.50;;;18.40;;
75429;SDS011;64127;51.488;5.462;2023-03-02T06:12:38;24.07;;;18.03;;
75429;SDS011;64127;51.488;5.462;2023-03-02T06:15:10;25.47;;;18.47;;
75429;SDS011;64127;51.488;5.462;2023-03-02T06:17:42;27.60;;;19.30;;
75429;SDS011;64127;51.488;5.462;2023-03-02T06:20:14;28.83;;;19.63;;
75429;SDS011;64127;51.488;5.462;2023-03-02T06:22:48;26.33;;;19.37;;
75429;SDS011;64127;51.488;5.462;2023-03-02T06:25:21;27.63;;;20.50;;
75429;SDS011;64127;51.488;5.462;2023-03-02T06:27:55;27.37;;;19.47;;
75429;SDS011;64127;51.488;5.462;2023-03-02T06:30:27;27.73;;;19.50;;
75429;SDS011;64127;51.488;5.462;2023-03-02T06:32:59;27.97;;;19.90;;
75429;SDS011;64127;51.488;5.462;2023-03-02T06:35:31;27.50;;;20.20;;
75429;SDS011;64127;51.488;5.462;2023-03-02T06:38:05;29.93;;;20.70;;
75429;SDS011;64127;51.488;5.462;2023-03-02T06:40:37;29.17;;;20.43;;
75429;SDS011;64127;51.488;5.462;2023-03-02T06:43:09;28.53;;;19.87;;
75429;SDS011;64127;51.488;5.462;2023-03-02T06:45:41;26.43;;;19.80;;
75429;SDS011;64127;51.488;5.462;2023-03-02T06:48:13;27.13;;;19.97;;
75429;SDS011;64127;51.488;5.462;2023-03-02T06:50:46;31.00;;;21.30;;
75429;SDS011;64127;51.488;5.462;2023-03-02T06:53:18;30.00;;;21.47;;
75429;SDS011;64127;51.488;5.462;2023-03-02T06:55:53;30.50;;;20.07;;
75429;SDS011;64127;51.488;5.462;2023-03-02T06:58:25;29.57;;;20.50;;
75429;SDS011;64127;51.488;5.462;2023-03-02T07:00:56;31.90;;;21.70;;
75429;SDS011;64127;51.488;5.462;2023-03-02T07:03:29;30.67;;;21.03;;
75429;SDS011;64127;51.488;5.462;2023-03-02T07:06:01;28.43;;;20.77;;
75429;SDS011;64127;51.488;5.462;2023-03-02T07:08:34;33.83;;;22.53;;
75429;SDS011;64127;51.488;5.462;2023-03-02T07:11:06;28.87;;;21.00;;
75429;SDS011;64127;51.488;5.462;2023-03-02T07:13:41;30.67;;;20.43;;
75429;SDS011;64127;51.488;5.462;2023-03-02T07:16:13;31.47;;;21.70;;
75429;SDS011;64127;51.488;5.462;2023-03-02T07:18:46;29.00;;;20.50;;
75429;SDS011;64127;51.488;5.462;2023-03-02T07:21:18;30.73;;;21.43;;
75429;SDS011;64127;51.488;5.462;2023-03-02T07:23:50;31.20;;;21.57;;
75429;SDS011;64127;51.488;5.462;2023-03-02T07:26:23;29.30;;;20.23;;
75429;SDS011;64127;51.488;5.462;2023-03-02T07:28:55;30.03;;;21.17;;
75429;SDS011;64127;51.488;5.462;2023-03-02T07:31:29;28.40;;;20.43;;
75429;SDS011;64127;51.488;5.462;2023-03-02T07:34:02;29.87;;;20.03;;
75429;SDS011;64127;51.488;5.462;2023-03-02T07:36:34;34.10;;;22.13;;
75429;SDS011;64127;51.488;5.462;2023-03-02T07:39:06;29.17;;;20.53;;
75429;SDS011;64127;51.488;5.462;2023-03-02T07:41:38;30.20;;;20.33;;
75429;SDS011;64127;51.488;5.462;2023-03-02T07:44:10;28.77;;;20.70;;
75429;SDS011;64127;51.488;5.462;2023-03-02T07:46:43;29.87;;;20.73;;
75429;SDS011;64127;51.488;5.462;2023-03-02T07:49:15;29.53;;;21.10;;
75429;SDS011;64127;51.488;5.462;2023-03-02T07:51:47;29.43;;;21.13;;
75429;SDS011;64127;51.488;5.462;2023-03-02T07:54:19;27.77;;;20.10;;
75429;SDS011;64127;51.488;5.462;2023-03-02T07:56:51;29.17;;;20.03;;
75429;SDS011;64127;51.488;5.462;2023-03-02T07:59:23;27.77;;;20.03;;
75429;SDS011;64127;51.488;5.462;2023-03-02T08:01:56;28.60;;;20.13;;
75429;SDS011;64127;51.488;5.462;2023-03-02T08:04:28;26.80;;;19.60;;
75429;SDS011;64127;51.488;5.462;2023-03-02T08:07:01;30.00;;;20.03;;
75429;SDS011;64127;51.488;5.462;2023-03-02T08:09:33;26.17;;;18.77;;
75429;SDS011;64127;51.488;5.462;2023-03-02T08:12:05;29.37;;;19.33;;
75429;SDS011;64127;51.488;5.462;2023-03-02T08:14:38;28.20;;;19.87;;
75429;SDS011;64127;51.488;5.462;2023-03-02T08:17:10;25.60;;;18.73;;
75429;SDS011;64127;51.488;5.462;2023-03-02T08:19:42;25.83;;;18.63;;
75429;SDS011;64127;51.488;5.462;2023-03-02T08:22:14;27.23;;;19.47;;
75429;SDS011;64127;51.488;5.462;2023-03-02T08:24:46;25.17;;;18.50;;
75429;SDS011;64127;51.488;5.462;2023-03-02T08:27:18;25.87;;;18.57;;
75429;SDS011;64127;51.488;5.462;2023-03-02T08:29:50;25.40;;;19.30;;
75429;SDS011;64127;51.488;5.462;2023-03-02T08:32:24;24.03;;;18.30;;
75429;SDS011;64127;51.488;5.462;2023-03-02T08:34:56;24.60;;;17.43;;
75429;SDS011;64127;51.488;5.462;2023-03-02T08:37:28;25.97;;;18.53;;
75429;SDS011;64127;51.488;5.462;2023-03-02T08:40:00;23.80;;;18.20;;
75429;SDS011;64127;51.488;5.462;2023-03-02T08:42:32;23.97;;;17.23;;
75429;SDS011;64127;51.488;5.462;2023-03-02T08:45:05;26.53;;;19.03;;
75429;SDS011;64127;51.488;5.462;2023-03-02T08:47:37;25.63;;;17.87;;
75429;SDS011;64127;51.488;5.462;2023-03-02T08:50:09;23.40;;;16.80;;
75429;SDS011;64127;51.488;5.462;2023-03-02T08:52:41;23.37;;;18.10;;
75429;SDS011;64127;51.488;5.462;2023-03-02T08:55:13;24.23;;;17.77;;
75429;SDS011;64127;51.488;5.462;2023-03-02T08:57:48;21.97;;;17.40;;
75429;SDS011;64127;51.488;5.462;2023-03-02T09:00:20;22.33;;;17.13;;
75429;SDS011;64127;51.488;5.462;2023-03-02T09:02:52;20.93;;;17.03;;
75429;SDS011;64127;51.488;5.462;2023-03-02T09:05:24;21.47;;;16.37;;
75429;SDS011;64127;51.488;5.462;2023-03-02T09:07:56;21.10;;;16.07;;
75429;SDS011;64127;51.488;5.462;2023-03-02T09:10:28;21.00;;;15.63;;
75429;SDS011;64127;51.488;5.462;2023-03-02T09:13:00;21.57;;;16.03;;
75429;SDS011;64127;51.488;5.462;2023-03-02T09:15:32;21.07;;;15.93;;
75429;SDS011;64127;51.488;5.462;2023-03-02T09:18:04;20.00;;;15.73;;
75429;SDS011;64127;51.488;5.462;2023-03-02T09:20:37;20.83;;;16.23;;
75429;SDS011;64127;51.488;5.462;2023-03-02T09:23:09;21.20;;;16.57;;
75429;SDS011;64127;51.488;5.462;2023-03-02T09:25:42;19.33;;;15.77;;
75429;SDS011;64127;51.488;5.462;2023-03-02T09:28:16;20.27;;;15.67;;
75429;SDS011;64127;51.488;5.462;2023-03-02T09:30:53;19.37;;;15.40;;
75429;SDS011;64127;51.488;5.462;2023-03-02T09:33:29;20.73;;;15.77;;
75429;SDS011;64127;51.488;5.462;2023-03-02T09:36:06;18.80;;;14.93;;
75429;SDS011;64127;51.488;5.462;2023-03-02T09:38:41;20.60;;;14.53;;
75429;SDS011;64127;51.488;5.462;2023-03-02T09:47:02;15.60;;;12.90;;
75429;SDS011;64127;51.488;5.462;2023-03-02T09:49:52;15.77;;;12.70;;
75429;SDS011;64127;51.488;5.462;2023-03-02T09:52:54;14.47;;;11.90;;
75429;SDS011;64127;51.488;5.462;2023-03-02T09:56:00;14.20;;;12.43;;
75429;SDS011;64127;51.488;5.462;2023-03-02T09:58:34;14.60;;;12.33;;
75429;SDS011;64127;51.488;5.462;2023-03-02T10:01:14;14.93;;;12.20;;
75429;SDS011;64127;51.488;5.462;2023-03-02T10:04:08;15.67;;;12.30;;
75429;SDS011;64127;51.488;5.462;2023-03-02T10:07:18;16.10;;;12.50;;
75429;SDS011;64127;51.488;5.462;2023-03-02T10:13:24;14.93;;;11.97;;
75429;SDS011;64127;51.488;5.462;2023-03-02T10:16:56;15.67;;;12.00;;
75429;SDS011;64127;51.488;5.462;2023-03-02T10:20:18;15.33;;;12.40;;
75429;SDS011;64127;51.488;5.462;2023-03-02T10:32:21;14.87;;;12.37;;
75429;SDS011;64127;51.488;5.462;2023-03-02T10:34:58;15.27;;;11.70;;
75429;SDS011;64127;51.488;5.462;2023-03-02T10:37:44;15.57;;;11.90;;
75429;SDS011;64127;51.488;5.462;2023-03-02T10:40:32;14.23;;;11.93;;
75429;SDS011;64127;51.488;5.462;2023-03-02T10:43:23;12.70;;;11.37;;
75429;SDS011;64127;51.488;5.462;2023-03-02T10:46:17;12.73;;;11.00;;
75429;SDS011;64127;51.488;5.462;2023-03-02T10:51:30;12.87;;;10.70;;
75429;SDS011;64127;51.488;5.462;2023-03-02T10:54:11;13.33;;;10.97;;
75429;SDS011;64127;51.488;5.462;2023-03-02T10:56:48;12.90;;;11.10;;
75429;SDS011;64127;51.488;5.462;2023-03-02T11:01:56;12.67;;;10.97;;
75429;SDS011;64127;51.488;5.462;2023-03-02T11:04:34;14.88;;;13.30;;
75429;SDS011;64127;51.488;5.462;2023-03-02T11:07:07;15.20;;;13.07;;
75429;SDS011;64127;51.488;5.462;2023-03-02T11:12:36;12.53;;;10.60;;
75429;SDS011;64127;51.488;5.462;2023-03-02T11:15:25;13.50;;;10.73;;
75429;SDS011;64127;51.488;5.462;2023-03-02T11:26:53;12.93;;;11.43;;
75429;SDS011;64127;51.488;5.462;2023-03-02T11:29:46;13.80;;;12.13;;
75429;SDS011;64127;51.488;5.462;2023-03-02T11:32:33;13.57;;;12.10;;
75429;SDS011;64127;51.488;5.462;2023-03-02T11:35:44;13.77;;;12.13;;
75429;SDS011;64127;51.488;5.462;2023-03-02T11:38:36;12.27;;;10.97;;
75429;SDS011;64127;51.488;5.462;2023-03-02T11:43:55;12.80;;;11.50;;
75429;SDS011;64127;51.488;5.462;2023-03-02T11:46:32;13.23;;;11.83;;
75429;SDS011;64127;51.488;5.462;2023-03-02T11:49:06;14.83;;;11.80;;
75429;SDS011;64127;51.488;5.462;2023-03-02T11:51:56;13.63;;;12.03;;
75429;SDS011;64127;51.488;5.462;2023-03-02T11:54:38;13.37;;;11.97;;
75429;SDS011;64127;51.488;5.462;2023-03-02T11:57:34;13.07;;;11.63;;
75429;SDS011;64127;51.488;5.462;2023-03-02T12:00:13;12.90;;;10.70;;
75429;SDS011;64127;51.488;5.462;2023-03-02T12:03:01;15.27;;;11.23;;
75429;SDS011;64127;51.488;5.462;2023-03-02T12:05:57;11.83;;;10.63;;
75429;SDS011;64127;51.488;5.462;2023-03-02T12:08:38;11.80;;;10.50;;
75429;SDS011;64127;51.488;5.462;2023-03-02T12:16:34;12.37;;;10.73;;
75429;SDS011;64127;51.488;5.462;2023-03-02T12:21:57;10.10;;;9.10;;
75429;SDS011;64127;51.488;5.462;2023-03-02T12:24:41;11.00;;;9.83;;
75429;SDS011;64127;51.488;5.462;2023-03-02T12:29:56;12.23;;;11.00;;
75429;SDS011;64127;51.488;5.462;2023-03-02T12:32:45;11.67;;;10.43;;
75429;SDS011;64127;51.488;5.462;2023-03-02T12:35:32;12.13;;;10.93;;
75429;SDS011;64127;51.488;5.462;2023-03-02T12:38:07;11.93;;;10.73;;
75429;SDS011;64127;51.488;5.462;2023-03-02T12:46:51;11.87;;;10.67;;
75429;SDS011;64127;51.488;5.462;2023-03-02T12:52:42;19.20;;;11.97;;
75429;SDS011;64127;51.488;5.462;2023-03-02T12:55:17;12.37;;;11.07;;
75429;SDS011;64127;51.488;5.462;2023-03-02T12:57:51;14.87;;;10.37;;
75429;SDS011;64127;51.488;5.462;2023-03-02T13:00:27;14.20;;;9.77;;
75429;SDS011;64127;51.488;5.462;2023-03-02T13:03:04;12.50;;;10.47;;
75429;SDS011;64127;51.488;5.462;2023-03-02T13:05:39;10.57;;;9.47;;
75429;SDS011;64127;51.488;5.462;2023-03-02T13:08:15;11.33;;;10.00;;
75429;SDS011;64127;51.488;5.462;2023-03-02T13:10:48;11.10;;;9.50;;
75429;SDS011;64127;51.488;5.462;2023-03-02T13:19:04;13.80;;;10.10;;
75429;SDS011;64127;51.488;5.462;2023-03-02T13:21:47;10.97;;;9.33;;
75429;SDS011;64127;51.488;5.462;2023-03-02T13:27:06;11.07;;;9.63;;
75429;SDS011;64127;51.488;5.462;2023-03-02T13:29:47;10.53;;;9.20;;
75429;SDS011;64127;51.488;5.462;2023-03-02T13:32:21;10.00;;;9.00;;
75429;SDS011;64127;51.488;5.462;2023-03-02T13:34:58;9.80;;;8.80;;
75429;SDS011;64127;51.488;5.462;2023-03-02T13:42:57;10.53;;;9.53;;
75429;SDS011;64127;51.488;5.462;2023-03-02T13:45:30;10.67;;;9.37;;
75429;SDS011;64127;51.488;5.462;2023-03-02T13:48:12;11.10;;;8.90;;
75429;SDS011;64127;51.488;5.462;2023-03-02T13:50:58;10.30;;;9.20;;
75429;SDS011;64127;51.488;5.462;2023-03-02T13:53:50;10.07;;;9.07;;
75429;SDS011;64127;51.488;5.462;2023-03-02T13:56:31;10.37;;;9.30;;
75429;SDS011;64127;51.488;5.462;2023-03-02T13:59:14;9.67;;;8.67;;
75429;SDS011;64127;51.488;5.462;2023-03-02T14:01:49;9.43;;;8.53;;
75429;SDS011;64127;51.488;5.462;2023-03-02T14:04:21;10.23;;;8.83;;
75429;SDS011;64127;51.488;5.462;2023-03-02T14:06:54;10.13;;;9.03;;
75429;SDS011;64127;51.488;5.462;2023-03-02T14:09:26;9.53;;;8.53;;
75429;SDS011;64127;51.488;5.462;2023-03-02T14:11:59;9.20;;;8.30;;
75429;SDS011;64127;51.488;5.462;2023-03-02T14:14:31;10.60;;;8.90;;
75429;SDS011;64127;51.488;5.462;2023-03-02T14:17:10;9.77;;;8.77;;
75429;SDS011;64127;51.488;5.462;2023-03-02T14:19:46;9.83;;;8.60;;
75429;SDS011;64127;51.488;5.462;2023-03-02T14:22:24;10.73;;;8.50;;
75429;SDS011;64127;51.488;5.462;2023-03-02T14:24:59;9.60;;;8.70;;
75429;SDS011;64127;51.488;5.462;2023-03-02T14:27:31;10.77;;;8.43;;
75429;SDS011;64127;51.488;5.462;2023-03-02T14:30:22;10.57;;;9.50;;
75429;SDS011;64127;51.488;5.462;2023-03-02T14:32:54;10.97;;;9.00;;
75429;SDS011;64127;51.488;5.462;2023-03-02T14:35:26;10.90;;;8.90;;
75429;SDS011;64127;51.488;5.462;2023-03-02T14:37:58;9.90;;;8.60;;
75429;SDS011;64127;51.488;5.462;2023-03-02T14:40:30;10.93;;;8.40;;
75429;SDS011;64127;51.488;5.462;2023-03-02T14:43:03;8.90;;;8.00;;
75429;SDS011;64127;51.488;5.462;2023-03-02T14:45:36;12.40;;;8.03;;
75429;SDS011;64127;51.488;5.462;2023-03-02T14:48:08;8.57;;;7.77;;
75429;SDS011;64127;51.488;5.462;2023-03-02T14:50:41;10.80;;;8.10;;
75429;SDS011;64127;51.488;5.462;2023-03-02T14:53:18;10.40;;;8.13;;
75429;SDS011;64127;51.488;5.462;2023-03-02T14:55:59;8.87;;;7.93;;
75429;SDS011;64127;51.488;5.462;2023-03-02T14:58:32;8.23;;;7.43;;
75429;SDS011;64127;51.488;5.462;2023-03-02T15:01:05;8.50;;;7.57;;
75429;SDS011;64127;51.488;5.462;2023-03-02T15:03:37;11.43;;;7.43;;
75429;SDS011;64127;51.488;5.462;2023-03-02T15:06:27;8.23;;;7.43;;
75429;SDS011;64127;51.488;5.462;2023-03-02T15:09:02;9.40;;;7.97;;
75429;SDS011;64127;51.488;5.462;2023-03-02T15:11:35;8.47;;;7.67;;
75429;SDS011;64127;51.488;5.462;2023-03-02T15:14:07;8.93;;;7.30;;
75429;SDS011;64127;51.488;5.462;2023-03-02T15:16:39;8.10;;;7.30;;
75429;SDS011;64127;51.488;5.462;2023-03-02T15:19:13;8.50;;;7.70;;
75429;SDS011;64127;51.488;5.462;2023-03-02T15:21:45;9.00;;;7.23;;
75429;SDS011;64127;51.488;5.462;2023-03-02T15:24:17;8.80;;;7.47;;
75429;SDS011;64127;51.488;5.462;2023-03-02T15:26:52;8.50;;;7.70;;
75429;SDS011;64127;51.488;5.462;2023-03-02T15:29:24;7.40;;;6.70;;
75429;SDS011;64127;51.488;5.462;2023-03-02T15:31:56;8.17;;;7.47;;
75429;SDS011;64127;51.488;5.462;2023-03-02T15:34:28;8.70;;;7.80;;
75429;SDS011;64127;51.488;5.462;2023-03-02T15:37:00;7.93;;;7.13;;
75429;SDS011;64127;51.488;5.462;2023-03-02T15:39:32;8.13;;;7.27;;
75429;SDS011;64127;51.488;5.462;2023-03-02T15:42:05;8.03;;;7.23;;
75429;SDS011;64127;51.488;5.462;2023-03-02T15:44:37;8.70;;;7.37;;
75429;SDS011;64127;51.488;5.462;2023-03-02T15:47:09;8.37;;;7.00;;
75429;SDS011;64127;51.488;5.462;2023-03-02T15:49:41;8.87;;;7.67;;
75429;SDS011;64127;51.488;5.462;2023-03-02T15:52:13;8.27;;;7.47;;
75429;SDS011;64127;51.488;5.462;2023-03-02T15:54:46;8.70;;;7.90;;
75429;SDS011;64127;51.488;5.462;2023-03-02T15:57:18;8.20;;;7.40;;
75429;SDS011;64127;51.488;5.462;2023-03-02T15:59:50;8.47;;;7.40;;
75429;SDS011;64127;51.488;5.462;2023-03-02T16:02:22;9.80;;;7.67;;
75429;SDS011;64127;51.488;5.462;2023-03-02T16:04:54;8.00;;;7.17;;
75429;SDS011;64127;51.488;5.462;2023-03-02T16:07:26;8.07;;;7.27;;
75429;SDS011;64127;51.488;5.462;2023-03-02T16:09:58;8.03;;;7.30;;
75429;SDS011;64127;51.488;5.462;2023-03-02T16:12:30;7.90;;;7.10;;
75429;SDS011;64127;51.488;5.462;2023-03-02T16:15:02;7.33;;;6.63;;
75429;SDS011;64127;51.488;5.462;2023-03-02T16:17:35;8.00;;;7.30;;
75429;SDS011;64127;51.488;5.462;2023-03-02T16:20:07;8.00;;;7.30;;
75429;SDS011;64127;51.488;5.462;2023-03-02T16:22:40;8.07;;;7.33;;
75429;SDS011;64127;51.488;5.462;2023-03-02T16:25:12;8.07;;;7.37;;
75429;SDS011;64127;51.488;5.462;2023-03-02T16:27:44;8.23;;;7.43;;
75429;SDS011;64127;51.488;5.462;2023-03-02T16:30:18;8.20;;;7.40;;
75429;SDS011;64127;51.488;5.462;2023-03-02T16:32:59;8.30;;;7.50;;
75429;SDS011;64127;51.488;5.462;2023-03-02T16:35:35;8.53;;;7.67;;
75429;SDS011;64127;51.488;5.462;2023-03-02T16:38:07;8.30;;;7.50;;
75429;SDS011;64127;51.488;5.462;2023-03-02T16:40:40;8.20;;;7.40;;
75429;SDS011;64127;51.488;5.462;2023-03-02T16:43:12;9.17;;;7.33;;